Howard Blank — WDF2314 — position and weather

sailwx.info

Track history (hours):
 
Tides and Currents Weather Stations Pressure Air Temp Water Temp Dewpoint Dewpoint Depression Visibility Wind Speed Wind Dir Waves Ship Positions

Howard Blank

Owner: Florida Marine Transporters, Inc., Mandeville, LA. More information available from US FCC via Universal Licensing System and Coast Guard Vessel Documentation Center.

Last reported at 2018-Jan-20 00:55 UTC. Time now 2018-Jan-20 16:52 UTC.
Position N 30°01' W 093°59'.

Length 27 m; draft 2.9 m.

Type: Towing. MMSI: 367427260.

Date/timePositionNaut miles runAvg speedWind from/ knotsBaromVisibWave heightAir tempDewpointWater temp
2018-Jan-20 00:55N 30°01' W 093°59'0 0.0
2018-Jan-19 15:12N 30°01' W 093°59'0 0.0
2018-Jan-19 14:54N 30°01' W 093°59'0 0.0
2018-Jan-19 14:20N 30°01' W 093°59'0 0.0
2018-Jan-19 13:48N 30°01' W 093°59'0 0.0
2018-Jan-19 13:29N 30°01' W 093°59'0 0.0
2018-Jan-19 13:00N 30°01' W 093°59'0 0.0
2018-Jan-19 12:25N 30°01' W 093°59'0 0.0
2018-Jan-19 11:59N 30°01' W 093°59'0 0.0
2018-Jan-19 11:30N 30°01' W 093°59'0 0.0
2018-Jan-19 11:00N 30°01' W 093°59'0 0.0
2018-Jan-19 10:23N 30°01' W 093°59'0 0.0
2018-Jan-19 09:59N 30°01' W 093°59'0 0.0
2018-Jan-19 09:29N 30°01' W 093°59'0 0.0
2018-Jan-19 04:42N 30°01' W 093°59'16 3.1
2018-Jan-18 23:35N 30°04' W 093°41'1 3.3
2018-Jan-18 23:25N 30°04' W 093°40'2 5.4
2018-Jan-18 23:00N 30°04' W 093°37'3 5.4
2018-Jan-18 22:30N 30°04' W 093°34'3 5.5
2018-Jan-18 22:00N 30°04' W 093°31'3 5.4
2018-Jan-18 21:30N 30°04' W 093°28'3 5.3
2018-Jan-18 21:00N 30°04' W 093°25'2 3.9
2018-Jan-18 20:30N 30°04' W 093°23'2 3.5
2018-Jan-18 20:00N 30°04' W 093°21'0 0.7
2018-Jan-18 19:30N 30°04' W 093°21'0 0.1
2018-Jan-18 19:00N 30°04' W 093°21'1 1.6
2018-Jan-18 18:30N 30°04' W 093°21'0 0.0
2018-Jan-18 18:00N 30°04' W 093°21'1 1.6
2018-Jan-18 17:29N 30°04' W 093°21'0 0.0
2018-Jan-18 17:00N 30°04' W 093°21'0 0.0
2018-Jan-18 16:30N 30°04' W 093°21'0 0.0
2018-Jan-18 16:00N 30°04' W 093°21'0 0.0
2018-Jan-18 15:30N 30°04' W 093°21'0 0.0
2018-Jan-18 15:00N 30°04' W 093°21'0 0.0
2018-Jan-18 14:30N 30°04' W 093°21'0 0.0
2018-Jan-18 14:00N 30°04' W 093°21'0 0.0
2018-Jan-18 13:30N 30°04' W 093°21'0 0.0
2018-Jan-18 13:00N 30°04' W 093°21'0 0.0
2018-Jan-18 12:30N 30°04' W 093°21'0 0.0
2018-Jan-18 12:00N 30°04' W 093°21'0 0.0
2018-Jan-18 11:30N 30°04' W 093°21'0 0.0
2018-Jan-18 11:00N 30°04' W 093°21'0 0.0
2018-Jan-18 10:30N 30°04' W 093°21'0 0.0
2018-Jan-18 10:00N 30°04' W 093°21'0 0.0
2018-Jan-18 09:30N 30°04' W 093°21'0 0.0
2018-Jan-18 09:00N 30°04' W 093°21'0 0.0
2018-Jan-18 08:30N 30°04' W 093°21'0 0.0
2018-Jan-18 08:00N 30°04' W 093°21'0 0.0
2018-Jan-18 07:30N 30°04' W 093°21'0 0.0
2018-Jan-18 07:00N 30°04' W 093°21'0 0.0
2018-Jan-18 06:30N 30°04' W 093°21'0 0.0
2018-Jan-18 06:00N 30°04' W 093°21'0 0.0
2018-Jan-18 05:30N 30°04' W 093°21'0 0.0
2018-Jan-18 05:00N 30°04' W 093°21'0 0.0
2018-Jan-18 04:30N 30°04' W 093°21'0 0.0
2018-Jan-18 04:00N 30°04' W 093°21'0 0.0
2018-Jan-18 03:30N 30°04' W 093°21'0 0.0
2018-Jan-18 03:00N 30°04' W 093°21'0 0.0
2018-Jan-18 02:30N 30°04' W 093°21'0 0.0
2018-Jan-18 02:00N 30°04' W 093°21'0 0.0
2018-Jan-18 01:30N 30°04' W 093°21'0 0.0
2018-Jan-18 01:00N 30°04' W 093°21'0 0.0
2018-Jan-18 00:00N 30°04' W 093°21'0 0.0
2018-Jan-17 23:57N 30°04' W 093°21'  
2018-Jan-11 00:19N 30°03' W 093°43'2 6.0
2018-Jan-10 23:59N 30°04' W 093°40'3 6.1
2018-Jan-10 23:29N 30°04' W 093°37'3 6.4
2018-Jan-10 23:00N 30°04' W 093°33'3 6.1
2018-Jan-10 22:30N 30°04' W 093°30'3 6.1
2018-Jan-10 22:00N 30°04' W 093°26'3 6.3
2018-Jan-10 21:30N 30°04' W 093°23'2 4.2
2018-Jan-10 21:00N 30°05' W 093°20'2 4.5
2018-Jan-10 20:30N 30°07' W 093°20'2 3.1
2018-Jan-10 20:00N 30°08' W 093°19'0 0.1
2018-Jan-10 19:30N 30°08' W 093°19'0 0.0
2018-Jan-10 19:00N 30°08' W 093°19'0 0.0
2018-Jan-10 18:30N 30°08' W 093°19'0 0.0
2018-Jan-10 18:00N 30°08' W 093°19'0 0.0
2018-Jan-10 17:30N 30°08' W 093°19'0 0.0
2018-Jan-10 17:00N 30°08' W 093°19'0 0.0
2018-Jan-10 16:30N 30°08' W 093°19'0 0.0
2018-Jan-10 16:00N 30°08' W 093°19'0 0.0
2018-Jan-10 15:30N 30°08' W 093°19'0 0.0
2018-Jan-10 15:00N 30°08' W 093°19'0 0.0
2018-Jan-10 14:30N 30°08' W 093°19'0 0.0
2018-Jan-10 14:00N 30°08' W 093°19'0 0.0
2018-Jan-10 13:30N 30°08' W 093°19'0 0.0
2018-Jan-10 13:00N 30°08' W 093°19'0 0.0
2018-Jan-10 12:30N 30°08' W 093°19'0 0.0
2018-Jan-10 12:00N 30°08' W 093°19'0 0.0
2018-Jan-10 11:30N 30°08' W 093°19'0 0.0
2018-Jan-10 11:00N 30°08' W 093°19'0 0.0
2018-Jan-10 10:30N 30°08' W 093°19'0 0.0
2018-Jan-10 10:00N 30°08' W 093°19'0 0.0
2018-Jan-10 09:30N 30°08' W 093°19'0 0.0
2018-Jan-10 09:00N 30°08' W 093°19'0 0.0
2018-Jan-10 08:30N 30°08' W 093°19'0 0.0
2018-Jan-10 08:00N 30°08' W 093°19'0 0.0
2018-Jan-10 07:30N 30°08' W 093°19'0 0.0
2018-Jan-10 07:00N 30°08' W 093°19'0 0.0
2018-Jan-10 06:30N 30°08' W 093°19'0 0.0
2018-Jan-10 06:00N 30°08' W 093°19'0 0.0
2018-Jan-10 05:30N 30°08' W 093°19'0 0.0
2018-Jan-10 05:00N 30°08' W 093°19'0 0.0
2018-Jan-10 04:30N 30°08' W 093°19'0 0.0
2018-Jan-10 04:00N 30°08' W 093°19'0 0.0
2018-Jan-10 03:30N 30°08' W 093°19'0 0.0
2018-Jan-10 03:00N 30°08' W 093°19'0 0.0
2018-Jan-10 02:30N 30°08' W 093°19'0 0.0
2018-Jan-10 02:00N 30°08' W 093°19'0 0.0
2018-Jan-10 01:30N 30°08' W 093°19'1 2.0
2018-Jan-10 01:00N 30°07' W 093°20'  
Track history (hours):
 
Tides and Currents Weather Stations Pressure Air Temp Water Temp Dewpoint Dewpoint Depression Visibility Wind Speed Wind Dir Waves Ship Positions

Howard Blank

Owner: Florida Marine Transporters, Inc., Mandeville, LA. More information available from US FCC via Universal Licensing System and Coast Guard Vessel Documentation Center.

Last reported at 2018-Jan-20 00:55 UTC. Time now 2018-Jan-20 16:52 UTC.
Position N 30°01' W 093°59'.

Length 27 m; draft 2.9 m.

Type: Towing. MMSI: 367427260.

Date/timePositionNaut miles runAvg speedWind from/ knotsBaromVisibWave heightAir tempDewpointWater temp
2018-Jan-20 00:55N 30°01' W 093°59'0 0.0
2018-Jan-19 15:12N 30°01' W 093°59'0 0.0
2018-Jan-19 14:54N 30°01' W 093°59'0 0.0
2018-Jan-19 14:20N 30°01' W 093°59'0 0.0
2018-Jan-19 13:48N 30°01' W 093°59'0 0.0
2018-Jan-19 13:29N 30°01' W 093°59'0 0.0
2018-Jan-19 13:00N 30°01' W 093°59'0 0.0
2018-Jan-19 12:25N 30°01' W 093°59'0 0.0
2018-Jan-19 11:59N 30°01' W 093°59'0 0.0
2018-Jan-19 11:30N 30°01' W 093°59'0 0.0
2018-Jan-19 11:00N 30°01' W 093°59'0 0.0
2018-Jan-19 10:23N 30°01' W 093°59'0 0.0
2018-Jan-19 09:59N 30°01' W 093°59'0 0.0
2018-Jan-19 09:29N 30°01' W 093°59'0 0.0
2018-Jan-19 04:42N 30°01' W 093°59'16 3.1
2018-Jan-18 23:35N 30°04' W 093°41'1 3.3
2018-Jan-18 23:25N 30°04' W 093°40'2 5.4
2018-Jan-18 23:00N 30°04' W 093°37'3 5.4
2018-Jan-18 22:30N 30°04' W 093°34'3 5.5
2018-Jan-18 22:00N 30°04' W 093°31'3 5.4
2018-Jan-18 21:30N 30°04' W 093°28'3 5.3
2018-Jan-18 21:00N 30°04' W 093°25'2 3.9
2018-Jan-18 20:30N 30°04' W 093°23'2 3.5
2018-Jan-18 20:00N 30°04' W 093°21'0 0.7
2018-Jan-18 19:30N 30°04' W 093°21'0 0.1
2018-Jan-18 19:00N 30°04' W 093°21'1 1.6
2018-Jan-18 18:30N 30°04' W 093°21'0 0.0
2018-Jan-18 18:00N 30°04' W 093°21'1 1.6
2018-Jan-18 17:29N 30°04' W 093°21'0 0.0
2018-Jan-18 17:00N 30°04' W 093°21'0 0.0
2018-Jan-18 16:30N 30°04' W 093°21'0 0.0
2018-Jan-18 16:00N 30°04' W 093°21'0 0.0
2018-Jan-18 15:30N 30°04' W 093°21'0 0.0
2018-Jan-18 15:00N 30°04' W 093°21'0 0.0
2018-Jan-18 14:30N 30°04' W 093°21'0 0.0
2018-Jan-18 14:00N 30°04' W 093°21'0 0.0
2018-Jan-18 13:30N 30°04' W 093°21'0 0.0
2018-Jan-18 13:00N 30°04' W 093°21'0 0.0
2018-Jan-18 12:30N 30°04' W 093°21'0 0.0
2018-Jan-18 12:00N 30°04' W 093°21'0 0.0
2018-Jan-18 11:30N 30°04' W 093°21'0 0.0
2018-Jan-18 11:00N 30°04' W 093°21'0 0.0
2018-Jan-18 10:30N 30°04' W 093°21'0 0.0
2018-Jan-18 10:00N 30°04' W 093°21'0 0.0
2018-Jan-18 09:30N 30°04' W 093°21'0 0.0
2018-Jan-18 09:00N 30°04' W 093°21'0 0.0
2018-Jan-18 08:30N 30°04' W 093°21'0 0.0
2018-Jan-18 08:00N 30°04' W 093°21'0 0.0
2018-Jan-18 07:30N 30°04' W 093°21'0 0.0
2018-Jan-18 07:00N 30°04' W 093°21'0 0.0
2018-Jan-18 06:30N 30°04' W 093°21'0 0.0
2018-Jan-18 06:00N 30°04' W 093°21'0 0.0
2018-Jan-18 05:30N 30°04' W 093°21'0 0.0
2018-Jan-18 05:00N 30°04' W 093°21'0 0.0
2018-Jan-18 04:30N 30°04' W 093°21'0 0.0
2018-Jan-18 04:00N 30°04' W 093°21'0 0.0
2018-Jan-18 03:30N 30°04' W 093°21'0 0.0
2018-Jan-18 03:00N 30°04' W 093°21'0 0.0
2018-Jan-18 02:30N 30°04' W 093°21'0 0.0
2018-Jan-18 02:00N 30°04' W 093°21'0 0.0
2018-Jan-18 01:30N 30°04' W 093°21'0 0.0
2018-Jan-18 01:00N 30°04' W 093°21'0 0.0
2018-Jan-18 00:00N 30°04' W 093°21'0 0.0
2018-Jan-17 23:57N 30°04' W 093°21'  
2018-Jan-11 00:19N 30°03' W 093°43'2 6.0
2018-Jan-10 23:59N 30°04' W 093°40'3 6.1
2018-Jan-10 23:29N 30°04' W 093°37'3 6.4
2018-Jan-10 23:00N 30°04' W 093°33'3 6.1
2018-Jan-10 22:30N 30°04' W 093°30'3 6.1
2018-Jan-10 22:00N 30°04' W 093°26'3 6.3
2018-Jan-10 21:30N 30°04' W 093°23'2 4.2
2018-Jan-10 21:00N 30°05' W 093°20'2 4.5
2018-Jan-10 20:30N 30°07' W 093°20'2 3.1
2018-Jan-10 20:00N 30°08' W 093°19'0 0.1
2018-Jan-10 19:30N 30°08' W 093°19'0 0.0
2018-Jan-10 19:00N 30°08' W 093°19'0 0.0
2018-Jan-10 18:30N 30°08' W 093°19'0 0.0
2018-Jan-10 18:00N 30°08' W 093°19'0 0.0
2018-Jan-10 17:30N 30°08' W 093°19'0 0.0
2018-Jan-10 17:00N 30°08' W 093°19'0 0.0
2018-Jan-10 16:30N 30°08' W 093°19'0 0.0
2018-Jan-10 16:00N 30°08' W 093°19'0 0.0
2018-Jan-10 15:30N 30°08' W 093°19'0 0.0
2018-Jan-10 15:00N 30°08' W 093°19'0 0.0
2018-Jan-10 14:30N 30°08' W 093°19'0 0.0
2018-Jan-10 14:00N 30°08' W 093°19'0 0.0
2018-Jan-10 13:30N 30°08' W 093°19'0 0.0
2018-Jan-10 13:00N 30°08' W 093°19'0 0.0
2018-Jan-10 12:30N 30°08' W 093°19'0 0.0
2018-Jan-10 12:00N 30°08' W 093°19'0 0.0
2018-Jan-10 11:30N 30°08' W 093°19'0 0.0
2018-Jan-10 11:00N 30°08' W 093°19'0 0.0
2018-Jan-10 10:30N 30°08' W 093°19'0 0.0
2018-Jan-10 10:00N 30°08' W 093°19'0 0.0
2018-Jan-10 09:30N 30°08' W 093°19'0 0.0
2018-Jan-10 09:00N 30°08' W 093°19'0 0.0
2018-Jan-10 08:30N 30°08' W 093°19'0 0.0
2018-Jan-10 08:00N 30°08' W 093°19'0 0.0
2018-Jan-10 07:30N 30°08' W 093°19'0 0.0
2018-Jan-10 07:00N 30°08' W 093°19'0 0.0
2018-Jan-10 06:30N 30°08' W 093°19'0 0.0
2018-Jan-10 06:00N 30°08' W 093°19'0 0.0
2018-Jan-10 05:30N 30°08' W 093°19'0 0.0
2018-Jan-10 05:00N 30°08' W 093°19'0 0.0
2018-Jan-10 04:30N 30°08' W 093°19'0 0.0
2018-Jan-10 04:00N 30°08' W 093°19'0 0.0
2018-Jan-10 03:30N 30°08' W 093°19'0 0.0
2018-Jan-10 03:00N 30°08' W 093°19'0 0.0
2018-Jan-10 02:30N 30°08' W 093°19'0 0.0
2018-Jan-10 02:00N 30°08' W 093°19'0 0.0
2018-Jan-10 01:30N 30°08' W 093°19'1 2.0
2018-Jan-10 01:00N 30°07' W 093°20'  

Dump ship's entire track history